createdAt,value
2017-07-22T00:00:16.339Z,7.90
2017-07-22T00:02:43.897Z,7.40
2017-07-22T00:05:11.494Z,7.90
2017-07-22T00:07:39.046Z,8.80
2017-07-22T00:10:06.618Z,8.37
2017-07-22T00:12:34.132Z,9.17
2017-07-22T00:15:01.743Z,10.27
2017-07-22T00:17:29.249Z,11.97
2017-07-22T00:19:56.758Z,10.20
2017-07-22T00:22:24.313Z,9.93
2017-07-22T00:24:51.889Z,12.83
2017-07-22T00:27:19.467Z,12.33
2017-07-22T00:29:47.097Z,11.30
2017-07-22T00:32:14.600Z,11.17
2017-07-22T00:34:42.107Z,9.83
2017-07-22T00:37:09.731Z,12.90
2017-07-22T00:39:37.884Z,12.80
2017-07-22T00:42:05.427Z,13.20
2017-07-22T00:44:33.048Z,14.67
2017-07-22T00:47:00.563Z,16.97
2017-07-22T00:49:28.183Z,16.33
2017-07-22T00:51:55.796Z,14.70
2017-07-22T00:54:23.320Z,16.20
2017-07-22T00:56:50.903Z,16.93
2017-07-22T00:59:18.483Z,15.70
2017-07-22T01:01:46.041Z,17.37
2017-07-22T01:04:13.734Z,16.87
2017-07-22T01:06:41.311Z,16.50
2017-07-22T01:09:09.480Z,17.77
2017-07-22T01:11:37.279Z,20.40
2017-07-22T01:14:05.685Z,20.77
2017-07-22T01:16:33.199Z,19.60
2017-07-22T01:19:00.715Z,16.13
2017-07-22T01:21:28.382Z,15.10
2017-07-22T01:23:55.923Z,17.90
2017-07-22T01:26:24.121Z,15.50
2017-07-22T01:28:51.676Z,16.00
2017-07-22T01:31:19.278Z,19.40
2017-07-22T01:33:47.003Z,17.00
2017-07-22T01:36:15.259Z,21.23
2017-07-22T01:38:43.144Z,21.33
2017-07-22T01:41:10.663Z,19.90
2017-07-22T01:43:38.275Z,26.43
2017-07-22T01:46:05.787Z,20.13
2017-07-22T01:48:33.328Z,16.67
2017-07-22T01:51:01.986Z,18.93
2017-07-22T01:53:29.503Z,15.60
2017-07-22T01:55:57.244Z,15.07
2017-07-22T01:58:25.623Z,13.90
2017-07-22T02:00:53.386Z,20.60
2017-07-22T02:03:21.004Z,21.47
2017-07-22T02:05:48.811Z,22.20
2017-07-22T02:08:16.646Z,23.27
2017-07-22T02:10:44.191Z,20.73
2017-07-22T02:13:11.783Z,20.50
2017-07-22T02:15:39.283Z,15.53
2017-07-22T02:18:06.798Z,16.30
2017-07-22T02:20:34.384Z,14.27
2017-07-22T02:23:01.908Z,18.93
2017-07-22T02:25:29.420Z,19.77
2017-07-22T02:27:56.972Z,19.10
2017-07-22T02:30:24.515Z,19.57
2017-07-22T02:32:52.082Z,18.70
2017-07-22T02:35:20.607Z,19.63
2017-07-22T02:37:48.112Z,20.00
2017-07-22T02:40:15.630Z,18.47
2017-07-22T02:42:43.190Z,19.70
2017-07-22T02:45:10.740Z,18.97
2017-07-22T02:47:38.272Z,18.73
2017-07-22T02:50:05.952Z,19.83
2017-07-22T02:52:33.464Z,19.60
2017-07-22T02:55:00.978Z,22.23
2017-07-22T02:57:28.540Z,19.90
2017-07-22T02:59:56.067Z,21.13
2017-07-22T03:02:23.623Z,21.43
2017-07-22T03:04:51.205Z,22.10
2017-07-22T03:07:18.715Z,22.20
2017-07-22T03:09:46.244Z,21.27
2017-07-22T03:12:13.952Z,18.50
2017-07-22T03:14:41.474Z,19.07
2017-07-22T03:17:08.991Z,21.30
2017-07-22T03:19:36.550Z,20.47
2017-07-22T03:22:04.088Z,24.70
2017-07-22T03:24:31.619Z,22.77
2017-07-22T03:26:59.187Z,22.50
2017-07-22T03:29:26.694Z,23.03
2017-07-22T03:31:54.314Z,23.50
2017-07-22T03:34:21.877Z,21.03
2017-07-22T03:36:49.399Z,22.77
2017-07-22T03:39:17.026Z,20.60
2017-07-22T03:41:44.587Z,17.50
2017-07-22T03:44:12.097Z,15.37
2017-07-22T03:46:39.604Z,14.67
2017-07-22T03:49:07.166Z,12.27
2017-07-22T03:51:34.862Z,11.67
2017-07-22T03:54:02.385Z,13.57
2017-07-22T03:56:29.935Z,13.37
2017-07-22T03:58:57.442Z,15.20
2017-07-22T04:01:24.947Z,16.23
2017-07-22T04:03:52.590Z,18.57
2017-07-22T04:06:20.601Z,19.10
2017-07-22T04:08:48.107Z,18.40
2017-07-22T04:11:15.785Z,16.83
2017-07-22T04:13:43.355Z,12.33
2017-07-22T04:16:10.924Z,15.10
2017-07-22T04:18:38.548Z,16.43
2017-07-22T04:21:06.057Z,20.50
2017-07-22T04:23:33.562Z,22.57
2017-07-22T04:26:01.120Z,24.67
2017-07-22T04:28:28.618Z,21.97
2017-07-22T04:30:56.167Z,22.57
2017-07-22T04:33:23.722Z,20.70
2017-07-22T04:35:51.227Z,18.43
2017-07-22T04:38:18.731Z,19.50
2017-07-22T04:40:46.859Z,17.17
2017-07-22T04:43:14.362Z,19.07
2017-07-22T04:45:41.871Z,17.03
2017-07-22T04:48:09.415Z,17.17
2017-07-22T04:50:36.951Z,17.20
2017-07-22T04:53:04.504Z,19.27
2017-07-22T04:55:32.063Z,19.40
2017-07-22T04:57:59.576Z,18.57
2017-07-22T05:00:27.074Z,17.30
2017-07-22T05:02:54.628Z,16.90
2017-07-22T05:05:22.195Z,17.87
2017-07-22T05:07:49.718Z,17.20
2017-07-22T05:10:17.263Z,17.97
2017-07-22T05:12:44.784Z,15.27
2017-07-22T05:15:12.296Z,14.73
2017-07-22T05:17:39.878Z,14.60
2017-07-22T05:20:07.475Z,12.53
2017-07-22T05:22:35.023Z,11.73
2017-07-22T05:25:02.579Z,11.33
2017-07-22T05:27:30.135Z,8.73
2017-07-22T05:29:57.640Z,11.07
2017-07-22T05:32:25.205Z,8.53
2017-07-22T05:34:52.755Z,7.80
2017-07-22T05:37:20.301Z,5.87
2017-07-22T05:39:47.884Z,6.43
2017-07-22T05:42:15.394Z,5.00
2017-07-22T05:44:43.175Z,5.33
2017-07-22T05:47:10.839Z,4.83
2017-07-22T05:49:38.336Z,4.73
2017-07-22T05:52:05.911Z,4.57
2017-07-22T05:54:33.474Z,5.20
2017-07-22T05:57:01.155Z,4.43
2017-07-22T05:59:28.657Z,5.50
2017-07-22T06:01:56.234Z,5.10
2017-07-22T06:04:23.743Z,5.27
2017-07-22T06:06:51.242Z,4.93
2017-07-22T06:09:18.811Z,6.13
2017-07-22T06:11:46.422Z,6.57
2017-07-22T06:14:14.819Z,5.87
2017-07-22T06:16:42.390Z,5.87
2017-07-22T06:19:09.887Z,5.53
2017-07-22T06:21:37.383Z,5.70
2017-07-22T06:24:05.003Z,4.67
2017-07-22T06:26:33.124Z,5.27
2017-07-22T06:29:00.654Z,4.90
2017-07-22T06:31:28.203Z,4.77
2017-07-22T06:33:55.700Z,4.90
2017-07-22T06:36:23.251Z,5.47
2017-07-22T06:38:50.891Z,5.57
2017-07-22T06:41:18.518Z,5.10
2017-07-22T06:43:46.033Z,5.60
2017-07-22T06:46:13.598Z,5.13
2017-07-22T06:48:41.131Z,5.50
2017-07-22T06:51:08.649Z,5.10
2017-07-22T06:53:36.207Z,4.80
2017-07-22T06:56:04.253Z,5.77
2017-07-22T06:58:31.796Z,5.00
2017-07-22T07:00:59.458Z,4.60
2017-07-22T07:03:26.912Z,5.80
2017-07-22T07:05:54.415Z,5.30
2017-07-22T07:08:22.011Z,5.20
2017-07-22T07:10:49.506Z,5.70
2017-07-22T07:13:17.002Z,5.07
2017-07-22T07:15:44.586Z,5.20
2017-07-22T07:18:12.124Z,5.10
2017-07-22T07:20:39.665Z,5.20
2017-07-22T07:23:07.267Z,5.40
2017-07-22T07:25:34.789Z,5.50
2017-07-22T07:28:02.319Z,5.37
2017-07-22T07:30:29.654Z,6.30
2017-07-22T07:32:57.152Z,5.20
2017-07-22T07:35:24.712Z,5.70
2017-07-22T07:37:52.343Z,5.00
2017-07-22T07:40:20.234Z,5.37
2017-07-22T07:42:47.754Z,5.30
2017-07-22T07:45:15.311Z,5.00
2017-07-22T07:47:42.814Z,4.60
2017-07-22T07:50:10.452Z,5.20
2017-07-22T07:52:38.067Z,5.07
2017-07-22T07:55:05.586Z,4.80
2017-07-22T07:57:33.090Z,5.10
2017-07-22T08:00:00.694Z,5.10
2017-07-22T08:02:28.211Z,4.93
2017-07-22T08:04:55.823Z,5.17
2017-07-22T08:07:23.456Z,4.83
2017-07-22T08:09:51.022Z,5.13
2017-07-22T08:12:18.523Z,5.20
2017-07-22T08:14:46.072Z,6.30
2017-07-22T08:17:13.575Z,5.40
2017-07-22T08:19:41.082Z,5.77
2017-07-22T08:22:08.671Z,5.40
2017-07-22T08:24:36.176Z,5.17
2017-07-22T08:27:03.681Z,5.17
2017-07-22T08:29:31.233Z,5.37
2017-07-22T08:31:58.791Z,5.03
2017-07-22T08:34:26.539Z,4.80
2017-07-22T08:36:54.111Z,5.23
2017-07-22T08:39:21.655Z,5.67
2017-07-22T08:41:49.167Z,5.37
2017-07-22T08:44:17.408Z,5.67
2017-07-22T08:46:44.911Z,4.63
2017-07-22T08:49:12.414Z,5.80
2017-07-22T08:51:39.979Z,4.43
2017-07-22T08:54:07.546Z,4.83
2017-07-22T08:56:35.166Z,5.30
2017-07-22T08:59:02.756Z,5.40
2017-07-22T09:01:30.281Z,4.57
2017-07-22T09:03:57.887Z,4.80
2017-07-22T09:06:25.506Z,4.80
2017-07-22T09:08:54.042Z,6.00
2017-07-22T09:11:21.564Z,4.80
2017-07-22T09:13:49.113Z,4.60
2017-07-22T09:16:16.648Z,4.33
2017-07-22T09:18:44.187Z,5.20
2017-07-22T09:21:11.831Z,4.90
2017-07-22T09:23:39.380Z,4.77
2017-07-22T09:26:06.882Z,4.57
2017-07-22T09:28:34.496Z,5.30
2017-07-22T09:31:02.009Z,4.13
2017-07-22T09:33:29.522Z,5.07
2017-07-22T09:35:57.083Z,4.80
2017-07-22T09:38:24.583Z,4.73
2017-07-22T09:40:52.134Z,4.10
2017-07-22T09:43:19.695Z,4.53
2017-07-22T09:45:47.202Z,4.97
2017-07-22T09:48:14.714Z,5.20
2017-07-22T09:50:42.262Z,4.90
2017-07-22T09:53:09.889Z,5.10
2017-07-22T09:55:37.399Z,4.87
2017-07-22T09:58:04.953Z,4.40
2017-07-22T10:00:32.447Z,4.53
2017-07-22T10:02:59.949Z,4.77
2017-07-22T10:05:27.508Z,4.53
2017-07-22T10:07:55.082Z,4.20
2017-07-22T10:10:22.639Z,4.53
2017-07-22T10:12:50.188Z,5.20
2017-07-22T10:15:17.742Z,5.20
2017-07-22T10:17:45.320Z,4.80
2017-07-22T10:20:12.877Z,4.70
2017-07-22T10:22:40.195Z,4.30
2017-07-22T10:25:07.703Z,4.33
2017-07-22T10:27:35.286Z,4.60
2017-07-22T10:30:02.803Z,5.07
2017-07-22T10:32:30.308Z,4.67
2017-07-22T10:34:57.927Z,4.30
2017-07-22T10:37:25.423Z,5.00
2017-07-22T10:39:52.922Z,5.03
2017-07-22T10:42:20.471Z,4.37
2017-07-22T10:44:47.971Z,5.10
2017-07-22T10:47:15.576Z,5.23
2017-07-22T10:49:43.134Z,5.10
2017-07-22T10:52:10.647Z,5.20
2017-07-22T10:54:38.176Z,4.57
2017-07-22T10:57:05.783Z,4.97
2017-07-22T10:59:33.284Z,5.30
2017-07-22T11:02:00.779Z,4.20
2017-07-22T11:04:28.343Z,5.00
2017-07-22T11:06:55.843Z,4.50
2017-07-22T11:09:23.434Z,4.83
2017-07-22T11:11:50.995Z,5.17
2017-07-22T11:14:18.508Z,4.60
2017-07-22T11:16:46.062Z,4.63
2017-07-22T11:19:13.671Z,4.17
2017-07-22T11:21:41.184Z,5.10
2017-07-22T11:24:08.696Z,4.70
2017-07-22T11:26:36.247Z,4.30
2017-07-22T11:29:03.751Z,4.80
2017-07-22T11:31:31.255Z,4.17
2017-07-22T11:33:58.890Z,4.30
2017-07-22T11:36:26.391Z,4.60
2017-07-22T11:38:53.909Z,4.50
2017-07-22T11:41:21.471Z,4.30
2017-07-22T11:43:49.054Z,5.17
2017-07-22T11:46:16.551Z,4.60
2017-07-22T11:48:44.099Z,4.30
2017-07-22T11:51:11.611Z,4.33
2017-07-22T11:53:39.106Z,4.63
2017-07-22T11:56:06.676Z,4.30
2017-07-22T11:58:34.535Z,4.30
2017-07-22T12:01:02.141Z,4.03
2017-07-22T12:03:29.737Z,4.27
2017-07-22T12:05:57.283Z,4.70
2017-07-22T12:08:24.829Z,4.37
2017-07-22T12:10:52.423Z,4.03
2017-07-22T12:13:19.940Z,4.23
2017-07-22T12:15:47.454Z,4.33
2017-07-22T12:18:15.046Z,4.10
2017-07-22T12:20:42.755Z,4.50
2017-07-22T12:23:10.267Z,4.40
2017-07-22T12:25:37.916Z,4.40
2017-07-22T12:28:05.435Z,4.33
2017-07-22T12:30:32.939Z,4.10
2017-07-22T12:33:01.091Z,3.80
2017-07-22T12:35:28.623Z,4.13
2017-07-22T12:37:56.202Z,3.97
2017-07-22T12:40:23.887Z,3.83
2017-07-22T12:42:51.394Z,4.77
2017-07-22T12:45:18.908Z,4.67
2017-07-22T12:47:46.454Z,5.13
2017-07-22T12:50:13.955Z,4.77
2017-07-22T12:52:41.464Z,4.17
2017-07-22T12:55:09.092Z,4.30
2017-07-22T12:57:36.588Z,4.50
2017-07-22T13:00:04.092Z,4.50
2017-07-22T13:02:31.648Z,4.57
2017-07-22T13:04:59.142Z,4.03
2017-07-22T13:07:26.647Z,4.23
2017-07-22T13:09:54.192Z,4.53
2017-07-22T13:12:21.690Z,4.50
2017-07-22T13:14:49.187Z,4.23
2017-07-22T13:17:16.746Z,4.40
2017-07-22T13:19:44.263Z,4.73
2017-07-22T13:22:11.771Z,4.17
2017-07-22T13:24:39.329Z,4.60
2017-07-22T13:27:06.831Z,4.40
2017-07-22T13:29:34.335Z,4.60
2017-07-22T13:32:01.895Z,4.57
2017-07-22T13:34:29.397Z,4.33
2017-07-22T13:39:30.848Z,4.43
2017-07-22T13:41:58.343Z,4.30
2017-07-22T13:44:25.852Z,5.30
2017-07-22T13:46:53.406Z,4.50
2017-07-22T13:49:20.914Z,5.23
2017-07-22T13:51:48.421Z,5.40
2017-07-22T13:54:15.976Z,4.60
2017-07-22T13:56:43.492Z,4.93
2017-07-22T13:59:10.995Z,4.80
2017-07-22T14:01:38.551Z,4.97
2017-07-22T14:04:06.060Z,4.53
2017-07-22T14:06:33.559Z,5.83
2017-07-22T14:09:01.107Z,4.70
2017-07-22T14:11:28.607Z,5.17
2017-07-22T14:13:56.123Z,4.83
2017-07-22T14:16:23.676Z,4.30
2017-07-22T14:18:51.191Z,6.17
2017-07-22T14:21:18.692Z,5.43
2017-07-22T14:23:46.243Z,4.80
2017-07-22T14:26:13.751Z,4.80
2017-07-22T14:28:41.039Z,4.43
2017-07-22T14:31:08.737Z,5.83
2017-07-22T14:33:36.246Z,5.93
2017-07-22T14:36:03.763Z,5.10
2017-07-22T14:38:31.331Z,5.10
2017-07-22T14:40:58.838Z,5.07
2017-07-22T14:43:26.336Z,6.27
2017-07-22T14:45:53.903Z,6.00
2017-07-22T14:48:21.414Z,5.30
2017-07-22T14:50:48.921Z,4.80
2017-07-22T14:53:16.471Z,5.43
2017-07-22T14:55:43.982Z,6.03
2017-07-22T14:58:11.490Z,5.33
2017-07-22T15:00:39.061Z,5.17
2017-07-22T15:03:06.563Z,5.23
2017-07-22T15:05:34.071Z,5.37
2017-07-22T15:08:01.644Z,5.13
2017-07-22T15:10:29.153Z,4.93
2017-07-22T15:12:56.671Z,5.23
2017-07-22T15:15:24.219Z,4.80
2017-07-22T15:17:51.719Z,5.90
2017-07-22T15:20:19.222Z,5.50
2017-07-22T15:22:46.812Z,5.70
2017-07-22T15:25:14.354Z,5.60
2017-07-22T15:27:41.912Z,5.00
2017-07-22T15:30:09.463Z,5.70
2017-07-22T15:32:36.977Z,5.20
2017-07-22T15:35:04.489Z,5.67
2017-07-22T15:37:32.040Z,5.57
2017-07-22T15:39:59.562Z,6.20
2017-07-22T15:42:27.071Z,5.93
2017-07-22T15:44:54.628Z,5.63
2017-07-22T15:47:22.138Z,6.07
2017-07-22T15:49:49.643Z,5.60
2017-07-22T15:52:17.200Z,5.07
2017-07-22T15:54:44.698Z,5.00
2017-07-22T15:57:12.200Z,5.40
2017-07-22T15:59:39.759Z,5.13
2017-07-22T16:02:07.264Z,5.20
2017-07-22T16:04:34.783Z,5.70
2017-07-22T16:07:02.343Z,5.20
2017-07-22T16:09:29.865Z,5.67
2017-07-22T16:11:57.372Z,6.47
2017-07-22T16:14:24.926Z,5.50
2017-07-22T16:16:52.430Z,6.03
2017-07-22T16:19:19.947Z,6.37
2017-07-22T16:21:47.511Z,5.53
2017-07-22T16:24:15.012Z,5.20
2017-07-22T16:26:42.528Z,5.70
2017-07-22T16:29:10.215Z,4.67
2017-07-22T16:31:37.727Z,5.23
2017-07-22T16:34:05.235Z,5.30
2017-07-22T16:36:32.794Z,5.63
2017-07-22T16:39:00.295Z,6.63
2017-07-22T16:41:27.810Z,6.33
2017-07-22T16:43:55.371Z,5.90
2017-07-22T16:46:22.881Z,6.10
2017-07-22T16:48:50.395Z,6.57
2017-07-22T16:51:17.963Z,6.60
2017-07-22T16:53:45.475Z,5.23
2017-07-22T16:56:12.972Z,5.93
2017-07-22T16:58:40.535Z,6.83
2017-07-22T17:01:08.041Z,6.60
2017-07-22T17:03:35.558Z,5.63
2017-07-22T17:06:03.131Z,6.50
2017-07-22T17:08:30.654Z,5.97
2017-07-22T17:10:58.163Z,6.10
2017-07-22T17:13:25.715Z,6.47
2017-07-22T17:15:53.244Z,6.90
2017-07-22T17:18:20.749Z,6.57
2017-07-22T17:20:48.309Z,6.67
2017-07-22T17:23:15.807Z,7.13
2017-07-22T17:25:43.319Z,6.17
2017-07-22T17:28:10.905Z,7.17
2017-07-22T17:30:38.411Z,7.30
2017-07-22T17:33:05.911Z,7.67
2017-07-22T17:35:33.474Z,8.30
2017-07-22T17:38:00.980Z,8.10
2017-07-22T17:40:28.487Z,7.10
2017-07-22T17:42:56.061Z,7.27
2017-07-22T17:45:23.559Z,6.87
2017-07-22T17:47:51.063Z,6.80
2017-07-22T17:50:18.605Z,7.77
2017-07-22T17:52:46.111Z,6.90
2017-07-22T17:55:13.611Z,7.27
2017-07-22T17:57:41.171Z,7.40
2017-07-22T18:00:08.675Z,7.13
2017-07-22T18:02:36.181Z,7.13
2017-07-22T18:05:03.733Z,6.70
2017-07-22T18:07:31.237Z,7.40
2017-07-22T18:09:58.750Z,7.80
2017-07-22T18:12:26.301Z,6.27
2017-07-22T18:14:53.798Z,5.87
2017-07-22T18:17:21.300Z,7.17
2017-07-22T18:19:48.851Z,5.93
2017-07-22T18:22:16.352Z,7.17
2017-07-22T18:24:43.851Z,6.97
2017-07-22T18:27:11.403Z,6.70
2017-07-22T18:29:38.904Z,7.50
2017-07-22T18:32:06.409Z,8.30
2017-07-22T18:34:33.957Z,8.67
2017-07-22T18:37:01.471Z,7.90
2017-07-22T18:39:29.001Z,8.10
2017-07-22T18:41:56.555Z,7.70
2017-07-22T18:44:24.129Z,8.30
2017-07-22T18:46:51.631Z,7.70
2017-07-22T18:49:19.183Z,6.53
2017-07-22T18:51:46.692Z,8.10
2017-07-22T18:54:14.186Z,7.67
2017-07-22T18:56:41.741Z,7.77
2017-07-22T18:59:09.261Z,7.80
2017-07-22T19:01:36.765Z,8.53
2017-07-22T19:04:04.321Z,8.30
2017-07-22T19:06:31.828Z,8.50
2017-07-22T19:08:59.328Z,8.30
2017-07-22T19:11:26.893Z,7.60
2017-07-22T19:13:54.400Z,7.37
2017-07-22T19:16:21.911Z,7.43
2017-07-22T19:18:49.475Z,7.97
2017-07-22T19:21:16.980Z,8.23
2017-07-22T19:23:44.484Z,8.87
2017-07-22T19:26:12.113Z,7.43
2017-07-22T19:28:39.617Z,7.60
2017-07-22T19:31:07.127Z,7.83
2017-07-22T19:33:34.673Z,8.77
2017-07-22T19:36:02.175Z,7.37
2017-07-22T19:38:29.682Z,7.57
2017-07-22T19:40:57.264Z,8.73
2017-07-22T19:43:24.780Z,8.97
2017-07-22T19:45:52.283Z,9.20
2017-07-22T19:48:19.884Z,9.13
2017-07-22T19:50:47.391Z,7.47
2017-07-22T19:53:14.891Z,7.93
2017-07-22T19:55:42.445Z,7.57
2017-07-22T19:58:09.960Z,7.77
2017-07-22T20:00:37.467Z,7.03
2017-07-22T20:03:05.028Z,8.60
2017-07-22T20:05:32.531Z,8.60
2017-07-22T20:08:00.027Z,8.17
2017-07-22T20:10:27.591Z,7.80
2017-07-22T20:12:55.091Z,8.43
2017-07-22T20:15:22.593Z,7.90
2017-07-22T20:17:50.146Z,7.97
2017-07-22T20:20:17.658Z,7.50
2017-07-22T20:22:45.166Z,8.17
2017-07-22T20:25:12.712Z,7.83
2017-07-22T20:27:40.213Z,9.00
2017-07-22T20:30:07.787Z,10.07
2017-07-22T20:32:35.359Z,9.00
2017-07-22T20:35:02.876Z,9.20
2017-07-22T20:37:30.387Z,8.80
2017-07-22T20:39:58.047Z,9.37
2017-07-22T20:42:25.560Z,9.23
2017-07-22T20:44:53.078Z,8.40
2017-07-22T20:47:20.632Z,12.10
2017-07-22T20:49:48.390Z,11.90
2017-07-22T20:52:15.970Z,12.63
2017-07-22T20:54:43.482Z,10.57
2017-07-22T20:57:11.039Z,10.17
2017-07-22T20:59:38.535Z,13.10
2017-07-22T21:02:06.051Z,15.20
2017-07-22T21:04:33.619Z,14.40
2017-07-22T21:07:01.123Z,15.50
2017-07-22T21:09:28.639Z,10.50
2017-07-22T21:11:56.214Z,9.90
2017-07-22T21:14:23.718Z,9.90
2017-07-22T21:16:51.222Z,9.50
2017-07-22T21:19:18.827Z,8.87
2017-07-22T21:21:46.345Z,9.77
2017-07-22T21:24:13.875Z,10.20
2017-07-22T21:26:41.507Z,10.83
2017-07-22T21:29:09.037Z,11.93
2017-07-22T21:31:36.550Z,8.90
2017-07-22T21:34:04.145Z,9.33
2017-07-22T21:36:31.659Z,8.73
2017-07-22T21:38:59.176Z,8.20
2017-07-22T21:41:26.723Z,9.80
2017-07-22T21:43:54.222Z,9.00
2017-07-22T21:46:21.745Z,8.90
2017-07-22T21:48:49.316Z,8.23
2017-07-22T21:51:16.823Z,9.17
2017-07-22T21:53:44.401Z,9.50
2017-07-22T21:56:11.967Z,9.67
2017-07-22T21:58:39.487Z,10.00
2017-07-22T22:01:06.996Z,21.23
2017-07-22T22:03:34.636Z,21.90
2017-07-22T22:06:02.152Z,16.17
2017-07-22T22:08:29.658Z,14.70
2017-07-22T22:10:57.404Z,10.77
2017-07-22T22:13:24.915Z,12.20
2017-07-22T22:15:52.448Z,10.33
2017-07-22T22:18:20.044Z,10.27
2017-07-22T22:20:47.559Z,9.33
2017-07-22T22:23:15.115Z,9.07
2017-07-22T22:25:42.679Z,8.40
2017-07-22T22:28:10.187Z,8.83
2017-07-22T22:30:37.691Z,8.47
2017-07-22T22:33:05.251Z,8.23
2017-07-22T22:35:32.815Z,11.23
2017-07-22T22:38:00.328Z,11.63
2017-07-22T22:40:27.911Z,11.13
2017-07-22T22:42:55.462Z,11.27
2017-07-22T22:45:23.010Z,12.20
2017-07-22T22:47:51.374Z,10.63
2017-07-22T22:50:18.903Z,9.17
2017-07-22T22:52:46.399Z,9.47
2017-07-22T22:55:13.964Z,9.43
2017-07-22T22:57:41.469Z,9.27
2017-07-22T23:00:09.070Z,8.87
2017-07-22T23:02:36.622Z,8.80
2017-07-22T23:05:04.134Z,8.70
2017-07-22T23:07:31.642Z,9.07
2017-07-22T23:09:59.215Z,10.77
2017-07-22T23:12:26.703Z,8.67
2017-07-22T23:14:54.301Z,9.00
2017-07-22T23:17:21.851Z,8.60
2017-07-22T23:19:49.352Z,8.70
2017-07-22T23:22:16.851Z,7.93
2017-07-22T23:24:44.479Z,8.73
2017-07-22T23:27:11.983Z,8.83
2017-07-22T23:29:39.492Z,9.20
2017-07-22T23:32:07.096Z,7.97
2017-07-22T23:34:34.655Z,7.70
2017-07-22T23:37:02.154Z,7.23
2017-07-22T23:39:29.726Z,6.97
2017-07-22T23:41:57.226Z,7.83
2017-07-22T23:44:24.801Z,6.50
2017-07-22T23:46:52.375Z,7.33
2017-07-22T23:49:19.887Z,7.50
2017-07-22T23:51:47.395Z,7.50
2017-07-22T23:54:14.943Z,6.53
2017-07-22T23:56:42.546Z,6.50
2017-07-22T23:59:10.103Z,7.60
